Detalii statie VESTAGRAR MARGHITA [00001D0E]

Toti senzorii

Date Temperatura solului [C]Precipitatii [mm]Voltaj baterie [mV]Leaf Wetness [Min]HC Air temperature [C]HC Relative humidity [%]Punctul de roua [C]
medieminmaxsumaultimatimpmedieminmaxmediemediemin
2019-10-19 22:00:00 0 6942 10.26 9.24 11.14 0 0 0
2019-10-19 23:00:00 0 6932 9.99 9.47 10.67 0 0 0
2019-10-20 00:00:00 0 6932 9.23 8.12 10.19 0 0 0
2019-10-20 01:00:00 0 6914 8.35 7.86 8.65 0 0 0
2019-10-20 02:00:00 0 6914 7.96 7.28 8.62 0 0 0
2019-10-20 03:00:00 0 6894 7.61 7.14 8.2 0 0 0
2019-10-20 04:00:00 0 6884 6.8 6.39 7.42 0 0 0
2019-10-20 05:00:00 0 6864 6.62 6.21 6.89 0 0 0
2019-10-20 06:00:00 0 6854 6.56 5.94 7.32 0 0 0
2019-10-20 07:00:00 0 6854 6.57 5.9 7.05 0 0 0
2019-10-20 08:00:00 0.2 6932 7.49 6.08 8.99 0 0 0
2019-10-20 09:00:00 0 7314 11.7 9.2 15.01 0 0 0
2019-10-20 10:00:00 0 7304 18.96 15.4 21.55 0 0 0
2019-10-20 11:00:00 0 7304 23.18 21.34 24.97 0 0 0
2019-10-20 12:00:00 0 7304 25.49 24.19 26.04 0 0 0
2019-10-20 13:00:00 0.2 7304 26.06 24.67 26.73 0 0 0
2019-10-20 14:00:00 0 7294 26.59 25.69 27.14 0 0 0
2019-10-20 15:00:00 0 7294 26.5 26.19 27.01 0 0 0
2019-10-20 16:00:00 0 7138 25.47 24.31 26.46 0 0 0
2019-10-20 17:00:00 0 7108 23.57 21.82 24.51 0 0 0
2019-10-20 18:00:00 0 6992 19.21 17.29 21.51 0 0 0
2019-10-20 19:00:00 0 6972 15.51 14.16 16.9 0 0 0
2019-10-20 20:00:00 0 6972 13.59 12.89 14.07 0 0 0
2019-10-20 21:00:00 0 6962 11.65 10.86 12.47 0 0 0
2019-10-20 22:00:00 0 6942 10.48 10.19 11.17 0 0 0
2019-10-20 23:00:00 0 6942 9.6 9.02 9.99 0 0 0
2019-10-21 00:00:00 0 6932 9.27 8.45 10.06 0 0 0
2019-10-21 01:00:00 0 6922 8.48 8.18 8.85 0 0 0
2019-10-21 02:00:00 0 6914 7.54 7.14 7.99 0 0 0
2019-10-21 03:00:00 0 6904 7.59 7.07 8.18 0 0 0
2019-10-21 04:00:00 0 6894 7 6.54 7.37 0 0 0
2019-10-21 05:00:00 0 6884 7.08 6.75 7.75 0 0 0
2019-10-21 06:00:00 0 6864 6.5 6.06 7.01 0 0 0
2019-10-21 07:00:00 0 6864 6.05 5.77 6.27 0 0 0
2019-10-21 08:00:00 0 6914 6.43 5.66 7.42 0 0 0
2019-10-21 09:00:00 0 7324 10.28 7.51 13.28 0 0 0
2019-10-21 10:00:00 0 7304 17.83 13.76 21.78 0 0 0
2019-10-21 11:00:00 0 7304 24.4 22.45 25.15 0 0 0
2019-10-21 12:00:00 0 7304 25.99 25.42 26.53 8.38 -0.8 0
2019-10-21 13:00:00 0 7304 26.73 26.02 27.5 23.08 3.5 1.7
2019-10-21 14:00:00 0 7304 28.03 27.69 28.38 19.33 2.1 1.3
2019-10-21 15:00:00 0 7304 27.77 27.22 28.25 12.95 0
2019-10-21 16:00:00 0 7284 26.56 24.87 27.52 0 0 0